createdAt,value
2022-08-09T00:00:05.916Z,16.59
2022-08-09T00:01:10.456Z,16.60
2022-08-09T00:02:12.681Z,16.64
2022-08-09T00:04:03.504Z,16.62
2022-08-09T00:04:38.137Z,16.64
2022-08-09T00:06:19.739Z,16.63
2022-08-09T00:07:02.165Z,16.62
2022-08-09T00:08:04.722Z,16.64
2022-08-09T00:09:12.271Z,16.67
2022-08-09T00:10:17.962Z,16.65
2022-08-09T00:11:25.022Z,16.65
2022-08-09T00:12:29.795Z,16.65
2022-08-09T00:13:38.396Z,16.64
2022-08-09T00:14:42.662Z,16.63
2022-08-09T00:15:59.720Z,16.60
2022-08-09T00:17:04.468Z,16.62
2022-08-09T00:18:11.208Z,16.64
2022-08-09T00:19:13.552Z,16.63
2022-08-09T00:20:20.465Z,16.56
2022-08-09T00:21:22.546Z,16.53
2022-08-09T00:22:24.738Z,16.52
2022-08-09T00:23:55.083Z,16.53
2022-08-09T00:24:59.691Z,16.55
2022-08-09T00:26:06.562Z,16.57
2022-08-09T00:27:08.394Z,16.57
2022-08-09T00:28:10.320Z,16.58
2022-08-09T00:29:39.403Z,16.62
2022-08-09T00:30:34.732Z,16.67
2022-08-09T00:31:58.416Z,16.68
2022-08-09T00:32:58.435Z,16.67
2022-08-09T00:34:00.350Z,16.68
2022-08-09T00:35:04.591Z,16.60
2022-08-09T00:36:06.484Z,16.58
2022-08-09T00:37:10.370Z,16.54
2022-08-09T00:38:13.189Z,16.51
2022-08-09T00:40:09.836Z,16.51
2022-08-09T00:40:40.498Z,16.53
2022-08-09T00:44:11.235Z,16.54
2022-08-09T00:44:13.717Z,16.54
2022-08-09T00:44:39.508Z,16.56
2022-08-09T00:45:47.430Z,16.58
2022-08-09T00:47:05.469Z,16.60
2022-08-09T00:48:07.935Z,16.63
2022-08-09T00:49:17.212Z,16.63
2022-08-09T00:50:23.182Z,16.58
2022-08-09T00:51:25.397Z,16.56
2022-08-09T00:52:30.317Z,16.58
2022-08-09T00:53:32.793Z,16.57
2022-08-09T00:54:38.153Z,16.58
2022-08-09T00:56:05.404Z,16.57
2022-08-09T00:57:10.636Z,16.57
2022-08-09T00:58:14.748Z,16.57
2022-08-09T00:59:40.711Z,16.54
2022-08-09T01:00:44.093Z,16.53
2022-08-09T01:01:47.581Z,16.53
2022-08-09T01:03:03.185Z,16.52
2022-08-09T01:04:13.525Z,16.54
2022-08-09T01:05:22.642Z,16.49
2022-08-09T01:07:08.032Z,16.48
2022-08-09T01:08:26.747Z,16.49
2022-08-09T01:09:43.325Z,16.53
2022-08-09T01:11:08.565Z,16.47
2022-08-09T01:12:12.652Z,16.42
2022-08-09T01:13:31.343Z,16.40
2022-08-09T01:15:05.760Z,16.38
2022-08-09T01:16:13.026Z,16.39
2022-08-09T01:17:30.533Z,16.40
2022-08-09T01:18:37.564Z,16.39
2022-08-09T01:20:02.731Z,16.39
2022-08-09T01:21:14.275Z,16.38
2022-08-09T01:22:33.978Z,16.37
2022-08-09T01:24:02.422Z,16.41
2022-08-09T01:25:08.785Z,16.44
2022-08-09T01:26:32.854Z,16.42
2022-08-09T01:27:36.307Z,16.37
2022-08-09T01:28:40.754Z,16.37
2022-08-09T01:29:54.987Z,16.39
2022-08-09T01:31:00.471Z,16.37
2022-08-09T01:32:32.698Z,16.37
2022-08-09T01:33:28.283Z,16.41
2022-08-09T01:34:31.909Z,16.44
2022-08-09T01:35:42.712Z,16.43
2022-08-09T01:36:45.367Z,16.44
2022-08-09T01:38:08.174Z,16.45
2022-08-09T01:39:12.810Z,16.41
2022-08-09T01:40:23.197Z,16.42
2022-08-09T01:41:31.659Z,16.37
2022-08-09T01:42:33.830Z,16.37
2022-08-09T01:43:42.299Z,16.40
2022-08-09T01:44:55.159Z,16.42
2022-08-09T01:45:57.956Z,16.43
2022-08-09T01:47:01.096Z,16.43
2022-08-09T01:48:05.864Z,16.47
2022-08-09T01:49:12.669Z,16.45
2022-08-09T01:50:16.709Z,16.42
2022-08-09T01:51:22.858Z,16.38
2022-08-09T01:52:26.130Z,16.38
2022-08-09T01:53:41.657Z,16.36
2022-08-09T01:54:49.227Z,16.36
2022-08-09T01:55:54.058Z,16.33
2022-08-09T01:56:57.996Z,16.32
2022-08-09T01:58:07.048Z,16.27
2022-08-09T01:59:10.785Z,16.26
2022-08-09T02:00:34.496Z,16.24
2022-08-09T02:01:59.791Z,16.25
2022-08-09T02:03:02.006Z,16.26
2022-08-09T02:04:04.467Z,16.27
2022-08-09T02:05:15.739Z,16.25
2022-08-09T02:06:39.564Z,16.21
2022-08-09T02:08:39.794Z,16.16
2022-08-09T02:09:13.066Z,16.18
2022-08-09T02:10:29.889Z,16.18
2022-08-09T02:11:40.480Z,16.15
2022-08-09T02:12:47.367Z,16.10
2022-08-09T02:14:06.914Z,16.07
2022-08-09T02:15:15.460Z,16.06
2022-08-09T02:16:18.779Z,16.08
2022-08-09T02:18:01.630Z,16.06
2022-08-09T02:18:56.418Z,15.99
2022-08-09T02:19:58.729Z,15.97
2022-08-09T02:21:08.345Z,15.98
2022-08-09T02:22:15.232Z,15.99
2022-08-09T02:23:39.953Z,16.03
2022-08-09T02:24:44.208Z,16.01
2022-08-09T02:25:56.977Z,15.99
2022-08-09T02:27:02.275Z,15.99
2022-08-09T02:28:09.765Z,15.97
2022-08-09T02:29:25.499Z,15.88
2022-08-09T02:30:29.637Z,15.86
2022-08-09T02:31:36.309Z,15.87
2022-08-09T02:32:41.856Z,15.87
2022-08-09T02:34:06.788Z,15.88
2022-08-09T02:35:17.379Z,15.89
2022-08-09T02:36:21.967Z,15.91
2022-08-09T02:37:31.713Z,15.88
2022-08-09T02:38:50.103Z,15.84
2022-08-09T02:40:01.565Z,15.83
2022-08-09T02:41:12.891Z,15.81
2022-08-09T02:42:20.120Z,15.86
2022-08-09T02:43:29.349Z,15.85
2022-08-09T02:44:49.594Z,15.88
2022-08-09T02:45:52.672Z,15.89
2022-08-09T02:46:55.722Z,15.88
2022-08-09T02:48:01.283Z,15.90
2022-08-09T02:49:08.100Z,15.93
2022-08-09T02:50:13.563Z,15.92
2022-08-09T02:51:20.764Z,15.89
2022-08-09T02:52:24.505Z,15.90
2022-08-09T02:53:34.346Z,15.89
2022-08-09T02:54:54.171Z,15.88
2022-08-09T02:55:59.025Z,15.91
2022-08-09T02:57:14.068Z,15.92
2022-08-09T02:58:37.105Z,15.92
2022-08-09T02:59:40.317Z,15.90
2022-08-09T03:01:04.362Z,15.86
2022-08-09T03:02:12.083Z,15.86
2022-08-09T03:03:21.347Z,15.81
2022-08-09T03:04:26.334Z,15.83
2022-08-09T03:05:34.491Z,15.84
2022-08-09T03:06:37.989Z,15.79
2022-08-09T03:07:42.655Z,15.79
2022-08-09T03:08:58.062Z,15.79
2022-08-09T03:10:00.701Z,15.80
2022-08-09T03:11:04.336Z,15.77
2022-08-09T03:12:10.980Z,15.80
2022-08-09T03:13:15.396Z,15.85
2022-08-09T03:14:18.553Z,15.86
2022-08-09T03:15:22.940Z,15.87
2022-08-09T03:16:25.084Z,15.88
2022-08-09T03:17:28.201Z,15.89
2022-08-09T03:18:31.286Z,15.89
2022-08-09T03:19:52.005Z,15.89
2022-08-09T03:20:57.128Z,15.90
2022-08-09T03:21:59.478Z,15.85
2022-08-09T03:23:14.496Z,15.80
2022-08-09T03:24:31.302Z,15.77
2022-08-09T03:25:59.260Z,15.78
2022-08-09T03:27:07.314Z,15.82
2022-08-09T03:28:11.343Z,15.85
2022-08-09T03:29:23.151Z,15.88
2022-08-09T03:30:33.628Z,15.90
2022-08-09T03:31:42.600Z,15.90
2022-08-09T03:32:59.843Z,15.89
2022-08-09T03:34:03.447Z,15.89
2022-08-09T03:35:24.205Z,15.86
2022-08-09T03:36:28.075Z,15.89
2022-08-09T03:37:56.266Z,15.88
2022-08-09T03:38:51.998Z,15.88
2022-08-09T03:39:55.621Z,15.90
2022-08-09T03:40:58.545Z,15.87
2022-08-09T03:42:05.938Z,15.87
2022-08-09T03:43:09.101Z,15.88
2022-08-09T03:44:13.402Z,15.85
2022-08-09T03:45:17.569Z,15.83
2022-08-09T03:46:39.528Z,15.82
2022-08-09T03:47:44.088Z,15.85
2022-08-09T03:48:54.279Z,15.82
2022-08-09T03:49:58.047Z,15.80
2022-08-09T03:51:00.960Z,15.85
2022-08-09T03:52:04.482Z,15.86
2022-08-09T03:53:07.488Z,15.89
2022-08-09T03:54:14.431Z,15.89
2022-08-09T03:55:16.579Z,15.92
2022-08-09T03:56:19.786Z,15.92
2022-08-09T03:57:21.712Z,15.94
2022-08-09T03:58:23.879Z,15.94
2022-08-09T03:59:53.265Z,15.95
2022-08-09T04:00:49.966Z,15.97
2022-08-09T04:01:53.877Z,15.98
2022-08-09T04:02:57.381Z,16.01
2022-08-09T04:04:03.870Z,15.99
2022-08-09T04:05:27.513Z,15.98
2022-08-09T04:06:29.653Z,15.94
2022-08-09T04:07:47.355Z,15.95
2022-08-09T04:08:53.711Z,15.96
2022-08-09T04:09:55.537Z,15.98
2022-08-09T04:11:01.614Z,16.02
2022-08-09T04:12:11.836Z,16.04
2022-08-09T04:13:14.029Z,16.08
2022-08-09T04:14:53.172Z,16.10
2022-08-09T04:16:20.494Z,16.12
2022-08-09T04:17:07.601Z,16.13
2022-08-09T04:18:09.691Z,16.15
2022-08-09T04:19:30.357Z,16.14
2022-08-09T04:20:42.342Z,16.10
2022-08-09T04:21:46.579Z,16.08
2022-08-09T04:22:50.435Z,16.08
2022-08-09T04:23:53.617Z,16.06
2022-08-09T04:24:56.483Z,16.08
2022-08-09T04:25:58.263Z,16.10
2022-08-09T04:27:00.061Z,16.12
2022-08-09T04:28:03.601Z,16.14
2022-08-09T04:29:10.826Z,16.14
2022-08-09T04:30:20.854Z,16.17
2022-08-09T04:31:26.314Z,16.18
2022-08-09T04:32:39.712Z,16.16
2022-08-09T04:33:52.774Z,16.14
2022-08-09T04:34:57.446Z,16.12
2022-08-09T04:35:59.503Z,16.11
2022-08-09T04:37:01.532Z,16.14
2022-08-09T04:38:03.743Z,16.16
2022-08-09T04:39:08.763Z,16.15
2022-08-09T04:40:11.660Z,16.18
2022-08-09T04:41:23.796Z,16.20
2022-08-09T04:42:29.911Z,16.22
2022-08-09T04:43:33.627Z,16.24
2022-08-09T04:44:37.650Z,16.22
2022-08-09T04:45:53.830Z,16.23
2022-08-09T04:46:58.932Z,16.22
2022-08-09T04:48:10.302Z,16.17
2022-08-09T04:49:12.220Z,16.16
2022-08-09T04:50:16.775Z,16.18
2022-08-09T04:51:21.524Z,16.16
2022-08-09T04:52:26.492Z,16.16
2022-08-09T04:53:29.143Z,16.19
2022-08-09T04:54:33.603Z,16.24
2022-08-09T04:55:42.004Z,16.25
2022-08-09T04:56:57.740Z,16.28
2022-08-09T04:58:09.332Z,16.30
2022-08-09T04:59:15.364Z,16.33
2022-08-09T05:00:17.615Z,16.36
2022-08-09T05:01:19.797Z,16.38
2022-08-09T05:02:23.052Z,16.40
2022-08-09T05:03:40.362Z,16.41
2022-08-09T05:04:47.367Z,16.39
2022-08-09T05:05:51.948Z,16.39
2022-08-09T05:06:54.732Z,16.42
2022-08-09T05:07:58.430Z,16.41
2022-08-09T05:09:01.451Z,16.41
2022-08-09T05:10:03.818Z,16.41
2022-08-09T05:11:07.519Z,16.40
2022-08-09T05:12:11.064Z,16.41
2022-08-09T05:13:14.666Z,16.44
2022-08-09T05:14:16.644Z,16.45
2022-08-09T05:15:38.616Z,16.44
2022-08-09T05:16:58.042Z,16.47
2022-08-09T05:18:39.294Z,16.46
2022-08-09T05:19:26.119Z,16.50
2022-08-09T05:20:33.665Z,16.51
2022-08-09T05:21:46.852Z,16.52
2022-08-09T05:23:54.027Z,16.52
2022-08-09T05:24:12.592Z,16.50
2022-08-09T05:25:16.492Z,16.51
2022-08-09T05:26:37.391Z,16.53
2022-08-09T05:27:46.329Z,16.54
2022-08-09T05:28:50.026Z,16.52
2022-08-09T05:29:54.026Z,16.50
2022-08-09T05:30:56.059Z,16.50
2022-08-09T05:32:02.855Z,16.52
2022-08-09T05:33:09.419Z,16.50
2022-08-09T05:34:16.999Z,16.51
2022-08-09T05:35:22.001Z,16.54
2022-08-09T05:36:28.813Z,16.54
2022-08-09T05:37:30.777Z,16.57
2022-08-09T05:38:49.295Z,16.59
2022-08-09T05:39:51.304Z,16.61
2022-08-09T05:40:53.212Z,16.60
2022-08-09T05:41:55.080Z,16.54
2022-08-09T05:42:57.085Z,16.57
2022-08-09T05:43:59.543Z,16.59
2022-08-09T05:45:01.353Z,16.63
2022-08-09T05:46:03.646Z,16.65
2022-08-09T05:47:05.949Z,16.68
2022-08-09T05:48:07.779Z,16.68
2022-08-09T05:50:23.695Z,16.66
2022-08-09T05:50:44.036Z,16.67
2022-08-09T05:51:54.443Z,16.66
2022-08-09T05:52:56.340Z,16.68
2022-08-09T05:53:59.750Z,16.69
2022-08-09T05:55:03.060Z,16.69
2022-08-09T05:56:09.356Z,16.66
2022-08-09T05:57:19.109Z,16.66
2022-08-09T05:58:21.206Z,16.66
2022-08-09T05:59:23.181Z,16.62
2022-08-09T06:00:29.103Z,16.63
2022-08-09T06:01:33.703Z,16.62
2022-08-09T06:02:46.719Z,16.64
2022-08-09T06:03:54.499Z,16.66
2022-08-09T06:05:00.534Z,16.67
2022-08-09T06:06:05.739Z,16.70
2022-08-09T06:07:07.835Z,16.73
2022-08-09T06:08:11.470Z,16.75
2022-08-09T06:09:40.532Z,16.77
2022-08-09T06:10:40.945Z,16.80
2022-08-09T06:11:57.303Z,16.79
2022-08-09T06:13:03.188Z,16.83
2022-08-09T06:14:14.790Z,16.84
2022-08-09T06:15:17.514Z,16.89
2022-08-09T06:16:19.319Z,16.94
2022-08-09T06:17:21.129Z,16.94
2022-08-09T06:18:25.305Z,16.97
2022-08-09T06:19:27.842Z,16.99
2022-08-09T06:20:30.220Z,16.98
2022-08-09T06:21:32.215Z,16.97
2022-08-09T06:22:34.750Z,16.98
2022-08-09T06:23:58.918Z,16.97
2022-08-09T06:24:58.596Z,17.00
2022-08-09T06:26:01.423Z,17.05
2022-08-09T06:27:03.463Z,17.07
2022-08-09T06:28:05.645Z,17.07
2022-08-09T06:29:08.537Z,17.08
2022-08-09T06:30:17.025Z,17.08
2022-08-09T06:31:19.519Z,17.10
2022-08-09T06:32:59.691Z,17.11
2022-08-09T06:33:55.227Z,17.15
2022-08-09T06:34:57.053Z,17.18
2022-08-09T06:35:59.290Z,17.20
2022-08-09T06:37:02.909Z,17.17
2022-08-09T06:38:05.447Z,17.20
2022-08-09T06:39:11.904Z,17.23
2022-08-09T06:40:22.001Z,17.29
2022-08-09T06:41:40.564Z,17.34
2022-08-09T06:42:48.173Z,17.39
2022-08-09T06:43:49.988Z,17.45
2022-08-09T06:44:55.511Z,17.45
2022-08-09T06:46:05.124Z,17.44
2022-08-09T06:47:12.371Z,17.47
2022-08-09T06:48:16.683Z,17.51
2022-08-09T06:49:44.776Z,17.52
2022-08-09T06:50:49.647Z,17.51
2022-08-09T06:51:51.453Z,17.54
2022-08-09T06:52:54.735Z,17.56
2022-08-09T06:54:00.723Z,17.57
2022-08-09T06:55:06.639Z,17.60
2022-08-09T06:56:14.639Z,17.64
2022-08-09T06:57:16.489Z,17.68
2022-08-09T06:58:40.571Z,17.68
2022-08-09T07:00:49.458Z,17.72
2022-08-09T07:01:02.072Z,17.75
2022-08-09T07:02:04.574Z,17.70
2022-08-09T07:03:06.958Z,17.70
2022-08-09T07:04:10.495Z,17.75
2022-08-09T07:05:21.657Z,17.75
2022-08-09T07:06:25.521Z,17.72
2022-08-09T07:08:01.008Z,17.74
2022-08-09T07:08:51.611Z,17.82
2022-08-09T07:10:14.149Z,17.80
2022-08-09T07:11:17.553Z,17.82
2022-08-09T07:12:40.797Z,17.82
2022-08-09T07:13:45.085Z,17.75
2022-08-09T07:16:38.544Z,17.72
2022-08-09T07:16:43.462Z,17.76
2022-08-09T07:17:52.810Z,17.85
2022-08-09T07:18:58.272Z,17.93
2022-08-09T07:20:00.087Z,17.96
2022-08-09T07:21:01.938Z,18.00
2022-08-09T07:22:04.124Z,17.99
2022-08-09T07:23:06.138Z,17.99
2022-08-09T07:24:21.163Z,17.98
2022-08-09T07:25:38.939Z,18.01
2022-08-09T07:26:44.720Z,18.06
2022-08-09T07:27:53.346Z,18.11
2022-08-09T07:29:08.967Z,18.15
2022-08-09T07:30:14.547Z,18.20
2022-08-09T07:31:16.826Z,18.25
2022-08-09T07:32:18.699Z,18.27
2022-08-09T07:33:24.880Z,18.29
2022-08-09T07:34:27.205Z,18.33
2022-08-09T07:35:29.069Z,18.33
2022-08-09T07:36:41.662Z,18.34
2022-08-09T07:37:49.342Z,18.34
2022-08-09T07:39:00.459Z,18.37
2022-08-09T07:40:03.192Z,18.38
2022-08-09T07:41:11.141Z,18.43
2022-08-09T07:42:14.078Z,18.41
2022-08-09T07:43:16.866Z,18.42
2022-08-09T07:44:18.990Z,18.46
2022-08-09T07:45:39.882Z,18.48
2022-08-09T07:46:43.121Z,18.55
2022-08-09T07:48:00.467Z,18.58
2022-08-09T07:49:06.116Z,18.55
2022-08-09T07:50:10.129Z,18.54
2022-08-09T07:52:05.420Z,18.55
2022-08-09T07:52:34.006Z,18.54
2022-08-09T07:54:04.238Z,18.56
2022-08-09T07:55:01.310Z,18.58
2022-08-09T07:56:27.184Z,18.59
2022-08-09T07:57:33.739Z,18.62
2022-08-09T07:58:37.806Z,18.68
2022-08-09T07:59:51.951Z,18.72
2022-08-09T08:01:06.632Z,18.76
2022-08-09T08:02:19.395Z,18.77
2022-08-09T08:03:22.051Z,18.79
2022-08-09T08:04:32.264Z,18.78
2022-08-09T08:05:54.077Z,18.81
2022-08-09T08:07:00.318Z,18.90
2022-08-09T08:09:00.758Z,18.97
2022-08-09T08:09:51.564Z,19.03
2022-08-09T08:11:15.354Z,19.07
2022-08-09T08:12:28.067Z,19.13
2022-08-09T08:13:38.214Z,19.13
2022-08-09T08:14:53.071Z,19.16
2022-08-09T08:15:54.862Z,19.19
2022-08-09T08:17:07.355Z,19.19
2022-08-09T08:18:09.787Z,19.19
2022-08-09T08:19:17.380Z,19.23
2022-08-09T08:20:28.494Z,19.20
2022-08-09T08:21:32.003Z,19.23
2022-08-09T08:22:34.261Z,19.27
2022-08-09T08:23:38.411Z,19.32
2022-08-09T08:24:47.199Z,19.35
2022-08-09T08:26:06.453Z,19.38
2022-08-09T08:27:16.995Z,19.42
2022-08-09T08:28:31.824Z,19.48
2022-08-09T08:29:39.250Z,19.52
2022-08-09T08:30:47.634Z,19.56
2022-08-09T08:32:03.248Z,19.62
2022-08-09T08:33:06.018Z,19.65
2022-08-09T08:34:14.110Z,19.68
2022-08-09T08:35:18.256Z,19.73
2022-08-09T08:36:28.511Z,19.77
2022-08-09T08:37:41.631Z,19.73
2022-08-09T08:38:54.045Z,19.71
2022-08-09T08:39:58.406Z,19.71
2022-08-09T08:41:06.146Z,19.74
2022-08-09T08:42:08.651Z,19.79
2022-08-09T08:43:13.781Z,19.85
2022-08-09T08:44:16.761Z,19.88
2022-08-09T08:45:53.579Z,19.93
2022-08-09T08:47:12.373Z,20.01
2022-08-09T08:48:19.224Z,20.03
2022-08-09T08:49:22.638Z,20.08
2022-08-09T08:50:40.175Z,20.10
2022-08-09T08:52:00.205Z,20.08
2022-08-09T08:53:04.319Z,20.04
2022-08-09T08:54:10.279Z,20.02
2022-08-09T08:55:23.361Z,20.08
2022-08-09T08:56:28.061Z,20.12
2022-08-09T08:57:30.240Z,20.14
2022-08-09T08:58:37.752Z,20.17
2022-08-09T08:59:46.493Z,20.23
2022-08-09T09:00:54.311Z,20.27
2022-08-09T09:01:59.773Z,20.28
2022-08-09T09:03:11.634Z,20.30
2022-08-09T09:04:14.840Z,20.33
2022-08-09T09:05:20.246Z,20.39
2022-08-09T09:06:36.716Z,20.47
2022-08-09T09:07:44.717Z,20.53
2022-08-09T09:08:52.336Z,20.62
2022-08-09T09:10:02.881Z,20.62
2022-08-09T09:11:07.517Z,20.65
2022-08-09T09:12:16.700Z,20.69
2022-08-09T09:13:19.590Z,20.73
2022-08-09T09:14:26.752Z,20.81
2022-08-09T09:15:29.006Z,20.83
2022-08-09T09:16:34.408Z,20.85
2022-08-09T09:17:49.417Z,20.93
2022-08-09T09:19:10.743Z,20.94
2022-08-09T09:20:17.449Z,20.86
2022-08-09T09:21:25.968Z,20.87
2022-08-09T09:22:29.668Z,20.94
2022-08-09T09:23:49.690Z,20.96
2022-08-09T09:26:01.002Z,21.04
2022-08-09T09:26:23.307Z,21.15
2022-08-09T09:28:05.727Z,21.22
2022-08-09T09:29:04.192Z,21.31
2022-08-09T09:30:26.261Z,21.34
2022-08-09T09:32:07.078Z,21.35
2022-08-09T09:33:15.652Z,21.42
2022-08-09T09:34:19.401Z,21.50
2022-08-09T09:35:21.247Z,21.57
2022-08-09T09:36:23.022Z,21.60
2022-08-09T09:37:31.996Z,21.58
2022-08-09T09:38:41.893Z,21.60
2022-08-09T09:39:55.568Z,21.65
2022-08-09T09:40:59.107Z,21.72
2022-08-09T09:42:08.932Z,21.78
2022-08-09T09:43:20.218Z,21.70
2022-08-09T09:44:31.808Z,21.68
2022-08-09T09:47:16.711Z,21.74
2022-08-09T09:48:23.217Z,21.81
2022-08-09T09:49:50.271Z,21.84
2022-08-09T09:50:51.497Z,21.90
2022-08-09T09:52:02.294Z,21.88
2022-08-09T09:53:04.291Z,21.96
2022-08-09T09:54:20.657Z,22.01
2022-08-09T09:55:29.179Z,22.05
2022-08-09T09:56:36.155Z,22.17
2022-08-09T09:58:18.235Z,22.26
2022-08-09T09:59:26.454Z,22.36
2022-08-09T10:00:43.475Z,22.45
2022-08-09T10:02:00.163Z,22.53
2022-08-09T10:03:11.605Z,22.61
2022-08-09T10:04:22.959Z,22.67
2022-08-09T10:06:03.611Z,22.74
2022-08-09T10:06:54.797Z,22.79
2022-08-09T10:08:25.936Z,22.78
2022-08-09T10:09:25.802Z,22.76
2022-08-09T10:10:31.502Z,22.79
2022-08-09T10:12:04.475Z,22.85
2022-08-09T10:12:56.191Z,22.95
2022-08-09T10:13:58.276Z,23.01
2022-08-09T10:15:04.319Z,23.10
2022-08-09T10:16:55.108Z,23.17
2022-08-09T10:17:50.181Z,23.25
2022-08-09T10:18:54.626Z,23.38
2022-08-09T10:19:57.067Z,23.42
2022-08-09T10:21:08.270Z,23.46
2022-08-09T10:22:10.112Z,23.50
2022-08-09T10:23:20.379Z,23.55
2022-08-09T10:24:25.536Z,23.65
2022-08-09T10:26:07.541Z,23.73
2022-08-09T10:26:59.954Z,23.84
2022-08-09T10:28:02.763Z,23.92
2022-08-09T10:29:32.781Z,23.95
2022-08-09T10:32:13.640Z,23.99
2022-08-09T10:33:29.534Z,24.20
2022-08-09T10:34:36.006Z,24.33
2022-08-09T10:35:38.567Z,24.46
2022-08-09T10:36:42.239Z,24.52
2022-08-09T10:37:44.687Z,24.59
2022-08-09T10:38:57.132Z,24.66
2022-08-09T10:40:02.211Z,24.73
2022-08-09T10:41:04.695Z,24.79
2022-08-09T10:42:06.896Z,24.82
2022-08-09T10:43:13.065Z,24.90
2022-08-09T10:44:18.067Z,24.94
2022-08-09T10:45:21.732Z,25.01
2022-08-09T10:46:52.345Z,25.12
2022-08-09T10:48:32.146Z,25.23
2022-08-09T10:49:51.817Z,25.29
2022-08-09T10:51:13.758Z,25.39
2022-08-09T10:52:30.784Z,25.47
2022-08-09T10:53:38.063Z,25.56
2022-08-09T10:54:41.414Z,25.61
2022-08-09T10:55:55.176Z,25.54
2022-08-09T10:57:19.319Z,25.38
2022-08-09T10:58:33.537Z,25.41
2022-08-09T10:59:55.528Z,25.46
2022-08-09T11:03:02.999Z,25.61
2022-08-09T11:03:17.972Z,25.76
2022-08-09T11:04:29.852Z,25.89
2022-08-09T11:05:31.281Z,25.86
2022-08-09T11:06:37.158Z,25.90
2022-08-09T11:07:55.769Z,26.02
2022-08-09T11:09:16.106Z,26.12
2022-08-09T11:10:37.762Z,26.18
2022-08-09T11:11:55.242Z,26.24
2022-08-09T11:13:13.786Z,26.28
2022-08-09T11:14:38.196Z,26.36
2022-08-09T11:15:50.738Z,26.35
2022-08-09T11:16:53.057Z,26.24
2022-08-09T11:18:03.722Z,26.29
2022-08-09T11:19:08.035Z,26.32
2022-08-09T11:20:22.267Z,26.33
2022-08-09T11:22:05.559Z,26.42
2022-08-09T11:23:23.846Z,26.58
2022-08-09T11:24:51.767Z,26.70
2022-08-09T11:25:54.680Z,26.82
2022-08-09T11:26:56.721Z,26.91
2022-08-09T11:28:08.394Z,27.00
2022-08-09T11:30:06.201Z,27.15
2022-08-09T11:31:43.528Z,27.31
2022-08-09T11:32:51.804Z,27.41
2022-08-09T11:33:58.029Z,27.38
2022-08-09T11:35:01.463Z,27.37
2022-08-09T11:36:03.891Z,27.46
2022-08-09T11:37:08.998Z,27.47
2022-08-09T11:38:22.560Z,27.43
2022-08-09T11:39:54.905Z,27.50
2022-08-09T11:41:02.151Z,27.59
2022-08-09T11:42:14.677Z,27.54
2022-08-09T11:43:18.218Z,27.66
2022-08-09T11:44:20.092Z,27.74
2022-08-09T11:45:23.059Z,27.81
2022-08-09T11:46:48.060Z,27.86
2022-08-09T11:47:53.170Z,27.99
2022-08-09T11:48:57.818Z,27.98
2022-08-09T11:50:54.981Z,27.95
2022-08-09T11:52:56.760Z,28.01
2022-08-09T11:53:28.055Z,28.04
2022-08-09T11:54:30.163Z,28.02
2022-08-09T11:55:52.465Z,28.05
2022-08-09T11:57:15.723Z,28.16
2022-08-09T11:58:32.339Z,28.27
2022-08-09T11:59:35.430Z,28.26
2022-08-09T12:00:48.497Z,28.30
2022-08-09T12:02:34.788Z,28.34
2022-08-09T12:03:50.423Z,28.42
2022-08-09T12:04:39.208Z,28.48
2022-08-09T12:05:42.449Z,28.52
2022-08-09T12:06:55.649Z,28.54
2022-08-09T12:07:58.834Z,28.60
2022-08-09T12:09:01.919Z,28.59
2022-08-09T12:10:03.886Z,28.64
2022-08-09T12:11:05.803Z,28.64
2022-08-09T12:12:29.453Z,28.64
2022-08-09T12:14:10.614Z,28.69
2022-08-09T12:15:07.838Z,28.71
2022-08-09T12:16:37.463Z,28.68
2022-08-09T12:17:43.239Z,28.74
2022-08-09T12:18:53.686Z,28.79
2022-08-09T12:19:59.899Z,28.81
2022-08-09T12:21:03.308Z,28.85
2022-08-09T12:22:05.564Z,28.94
2022-08-09T12:23:07.487Z,28.91
2022-08-09T12:24:10.578Z,28.87
2022-08-09T12:25:16.283Z,28.87
2022-08-09T12:26:25.660Z,28.90
2022-08-09T12:29:10.554Z,28.95
2022-08-09T12:29:13.736Z,28.89
2022-08-09T12:30:35.233Z,28.94
2022-08-09T12:32:01.907Z,28.93
2022-08-09T12:33:04.620Z,28.93
2022-08-09T12:34:06.448Z,29.06
2022-08-09T12:35:10.852Z,29.18
2022-08-09T12:36:31.187Z,29.34
2022-08-09T12:37:37.855Z,29.45
2022-08-09T12:38:46.280Z,29.57
2022-08-09T12:40:11.079Z,29.69
2022-08-09T12:41:13.483Z,29.79
2022-08-09T12:42:16.649Z,29.76
2022-08-09T12:43:23.365Z,29.69
2022-08-09T12:44:46.365Z,29.68
2022-08-09T12:45:59.742Z,29.73
2022-08-09T12:47:02.470Z,29.71
2022-08-09T12:48:20.170Z,29.73
2022-08-09T12:49:29.565Z,29.80
2022-08-09T12:50:32.321Z,29.79
2022-08-09T12:52:01.159Z,29.78
2022-08-09T12:53:08.713Z,29.83
2022-08-09T12:54:11.707Z,29.84
2022-08-09T12:56:15.185Z,29.83
2022-08-09T12:56:54.109Z,29.79
2022-08-09T12:57:56.411Z,29.68
2022-08-09T12:59:12.076Z,29.69
2022-08-09T13:00:26.502Z,29.80
2022-08-09T13:01:28.864Z,29.80
2022-08-09T13:02:45.696Z,29.83
2022-08-09T13:03:58.889Z,29.88
2022-08-09T13:05:02.508Z,30.00
2022-08-09T13:06:14.363Z,29.87
2022-08-09T13:07:20.016Z,29.83
2022-08-09T13:08:40.442Z,29.81
2022-08-09T13:09:55.591Z,29.84
2022-08-09T13:11:13.204Z,29.89
2022-08-09T13:12:24.790Z,29.99
2022-08-09T13:13:37.996Z,30.06
2022-08-09T13:14:54.086Z,30.05
2022-08-09T13:15:56.975Z,30.17
2022-08-09T13:17:03.134Z,30.31
2022-08-09T13:18:09.542Z,30.43
2022-08-09T13:19:13.084Z,30.40
2022-08-09T13:20:23.178Z,30.40
2022-08-09T13:22:37.624Z,30.46
2022-08-09T13:23:05.564Z,30.50
2022-08-09T13:24:53.216Z,30.47
2022-08-09T13:25:55.003Z,30.34
2022-08-09T13:26:58.739Z,30.35
2022-08-09T13:28:08.839Z,30.46
2022-08-09T13:29:18.415Z,30.59
2022-08-09T13:32:09.724Z,30.63
2022-08-09T13:32:17.101Z,30.66
2022-08-09T13:33:23.867Z,30.64
2022-08-09T13:34:26.111Z,30.57
2022-08-09T13:35:34.650Z,30.64
2022-08-09T13:36:56.460Z,30.71
2022-08-09T13:37:58.337Z,30.71
2022-08-09T13:39:30.980Z,30.79
2022-08-09T13:41:54.354Z,30.78
2022-08-09T13:41:56.388Z,30.75
2022-08-09T13:43:05.047Z,30.82
2022-08-09T13:44:07.275Z,30.90
2022-08-09T13:45:12.387Z,30.99
2022-08-09T13:47:16.671Z,31.12
2022-08-09T13:47:49.034Z,31.26
2022-08-09T13:48:52.464Z,31.30
2022-08-09T13:49:58.109Z,31.38
2022-08-09T13:51:03.692Z,31.43
2022-08-09T13:52:09.195Z,31.40
2022-08-09T13:53:11.547Z,31.37
2022-08-09T13:54:13.832Z,31.32
2022-08-09T13:55:17.601Z,31.31
2022-08-09T13:56:19.774Z,31.29
2022-08-09T13:57:37.339Z,31.17
2022-08-09T13:58:41.991Z,31.11
2022-08-09T13:59:43.730Z,31.06
2022-08-09T14:00:50.456Z,31.06
2022-08-09T14:01:56.407Z,30.92
2022-08-09T14:04:01.802Z,30.91
2022-08-09T14:04:24.987Z,30.79
2022-08-09T14:05:56.974Z,30.60
2022-08-09T14:06:54.206Z,30.70
2022-08-09T14:08:01.534Z,30.91
2022-08-09T14:09:06.655Z,30.97
2022-08-09T14:10:17.302Z,31.01
2022-08-09T14:11:32.356Z,31.12
2022-08-09T14:12:48.826Z,31.12
2022-08-09T14:14:23.155Z,31.25
2022-08-09T14:16:06.373Z,31.20
2022-08-09T14:16:34.596Z,31.24
2022-08-09T14:18:18.663Z,31.35
2022-08-09T14:18:59.498Z,31.24
2022-08-09T14:20:01.975Z,31.25
2022-08-09T14:21:06.091Z,31.40
2022-08-09T14:22:07.861Z,31.29
2022-08-09T14:23:10.973Z,31.22
2022-08-09T14:24:32.637Z,31.41
2022-08-09T14:25:42.712Z,31.63
2022-08-09T14:26:46.307Z,31.66
2022-08-09T14:27:58.646Z,31.76
2022-08-09T14:29:02.673Z,31.90
2022-08-09T14:30:36.597Z,31.86
2022-08-09T14:31:35.829Z,31.77
2022-08-09T14:32:48.916Z,31.42
2022-08-09T14:33:52.120Z,31.45
2022-08-09T14:34:56.880Z,31.52
2022-08-09T14:35:58.778Z,31.60
2022-08-09T14:37:20.638Z,31.67
2022-08-09T14:38:30.072Z,31.66
2022-08-09T14:39:39.831Z,31.58
2022-08-09T14:41:04.181Z,31.70
2022-08-09T14:42:10.361Z,31.79
2022-08-09T14:43:18.417Z,31.89
2022-08-09T14:44:32.481Z,32.03
2022-08-09T14:46:57.105Z,32.10
2022-08-09T14:47:31.265Z,32.34
2022-08-09T14:48:26.817Z,32.23
2022-08-09T14:49:28.977Z,32.13
2022-08-09T14:50:37.290Z,32.15
2022-08-09T14:51:41.965Z,31.96
2022-08-09T14:52:50.036Z,32.03
2022-08-09T14:53:52.830Z,32.28
2022-08-09T14:54:54.587Z,32.40
2022-08-09T14:55:56.301Z,32.49
2022-08-09T14:56:59.243Z,32.14
2022-08-09T14:58:02.830Z,32.29
2022-08-09T14:59:05.129Z,32.13
2022-08-09T15:00:11.006Z,32.20
2022-08-09T15:01:13.902Z,32.36
2022-08-09T15:02:17.974Z,32.47
2022-08-09T15:03:22.331Z,32.31
2022-08-09T15:04:24.194Z,32.41